sensor_id;sensor_type;location;lat;lon;timestamp;P1;durP1;ratioP1;P2;durP2;ratioP2
42092;SDS011;28974;50.316;18.960;2023-08-20T00:08:14;43.47;;;26.55;;
42092;SDS011;28974;50.316;18.960;2023-08-20T00:20:15;47.10;;;25.02;;
42092;SDS011;28974;50.316;18.960;2023-08-20T00:32:16;41.83;;;25.08;;
42092;SDS011;28974;50.316;18.960;2023-08-20T00:44:17;38.45;;;28.30;;
42092;SDS011;28974;50.316;18.960;2023-08-20T00:56:17;37.55;;;25.85;;
42092;SDS011;28974;50.316;18.960;2023-08-20T01:08:29;40.75;;;26.92;;
42092;SDS011;28974;50.316;18.960;2023-08-20T01:20:35;38.40;;;26.08;;
42092;SDS011;28974;50.316;18.960;2023-08-20T01:32:36;39.83;;;26.80;;
42092;SDS011;28974;50.316;18.960;2023-08-20T01:44:39;43.83;;;28.90;;
42092;SDS011;28974;50.316;18.960;2023-08-20T01:56:39;39.92;;;29.17;;
42092;SDS011;28974;50.316;18.960;2023-08-20T02:08:40;45.53;;;30.00;;
42092;SDS011;28974;50.316;18.960;2023-08-20T02:20:42;36.58;;;28.10;;
42092;SDS011;28974;50.316;18.960;2023-08-20T02:32:43;39.72;;;28.83;;
42092;SDS011;28974;50.316;18.960;2023-08-20T02:44:43;47.30;;;28.67;;
42092;SDS011;28974;50.316;18.960;2023-08-20T02:56:43;47.00;;;30.13;;
42092;SDS011;28974;50.316;18.960;2023-08-20T03:08:44;46.42;;;28.92;;
42092;SDS011;28974;50.316;18.960;2023-08-20T03:20:44;38.53;;;27.83;;
42092;SDS011;28974;50.316;18.960;2023-08-20T03:32:44;41.03;;;27.77;;
42092;SDS011;28974;50.316;18.960;2023-08-20T03:44:45;50.27;;;31.40;;
42092;SDS011;28974;50.316;18.960;2023-08-20T03:56:46;55.50;;;38.17;;
42092;SDS011;28974;50.316;18.960;2023-08-20T04:08:46;61.67;;;39.85;;
42092;SDS011;28974;50.316;18.960;2023-08-20T04:20:46;49.67;;;31.42;;
42092;SDS011;28974;50.316;18.960;2023-08-20T04:32:47;49.38;;;31.73;;
42092;SDS011;28974;50.316;18.960;2023-08-20T04:44:49;46.50;;;32.35;;
42092;SDS011;28974;50.316;18.960;2023-08-20T04:56:51;49.75;;;33.78;;
42092;SDS011;28974;50.316;18.960;2023-08-20T05:08:51;56.88;;;35.78;;
42092;SDS011;28974;50.316;18.960;2023-08-20T05:20:54;58.25;;;37.47;;
42092;SDS011;28974;50.316;18.960;2023-08-20T05:32:54;61.78;;;36.28;;
42092;SDS011;28974;50.316;18.960;2023-08-20T05:44:56;56.78;;;37.17;;
42092;SDS011;28974;50.316;18.960;2023-08-20T05:57:00;48.20;;;33.13;;
42092;SDS011;28974;50.316;18.960;2023-08-20T06:09:06;48.50;;;34.22;;
42092;SDS011;28974;50.316;18.960;2023-08-20T06:21:06;57.05;;;32.88;;
42092;SDS011;28974;50.316;18.960;2023-08-20T06:33:06;54.58;;;33.65;;
42092;SDS011;28974;50.316;18.960;2023-08-20T06:45:07;47.67;;;32.50;;
42092;SDS011;28974;50.316;18.960;2023-08-20T06:57:08;56.20;;;32.78;;
42092;SDS011;28974;50.316;18.960;2023-08-20T07:09:08;40.30;;;28.00;;
42092;SDS011;28974;50.316;18.960;2023-08-20T07:21:09;43.58;;;29.67;;
42092;SDS011;28974;50.316;18.960;2023-08-20T07:33:09;43.05;;;26.38;;
42092;SDS011;28974;50.316;18.960;2023-08-20T07:45:09;40.08;;;24.50;;
42092;SDS011;28974;50.316;18.960;2023-08-20T07:57:10;29.20;;;20.83;;
42092;SDS011;28974;50.316;18.960;2023-08-20T08:09:17;29.38;;;20.90;;
42092;SDS011;28974;50.316;18.960;2023-08-20T08:21:18;29.27;;;18.88;;
42092;SDS011;28974;50.316;18.960;2023-08-20T08:33:18;30.63;;;17.42;;
42092;SDS011;28974;50.316;18.960;2023-08-20T08:45:19;31.30;;;19.50;;
42092;SDS011;28974;50.316;18.960;2023-08-20T08:57:20;32.65;;;18.25;;
42092;SDS011;28974;50.316;18.960;2023-08-20T09:09:21;25.80;;;17.67;;
42092;SDS011;28974;50.316;18.960;2023-08-20T09:21:21;37.38;;;20.48;;
42092;SDS011;28974;50.316;18.960;2023-08-20T09:33:28;28.55;;;20.13;;
42092;SDS011;28974;50.316;18.960;2023-08-20T09:45:29;30.07;;;17.10;;
42092;SDS011;28974;50.316;18.960;2023-08-20T09:57:36;14.73;;;9.85;;
42092;SDS011;28974;50.316;18.960;2023-08-20T10:09:38;15.20;;;10.95;;
42092;SDS011;28974;50.316;18.960;2023-08-20T10:21:43;17.00;;;11.00;;
42092;SDS011;28974;50.316;18.960;2023-08-20T10:45:46;17.83;;;12.80;;
42092;SDS011;28974;50.316;18.960;2023-08-20T10:58:02;21.93;;;12.63;;
42092;SDS011;28974;50.316;18.960;2023-08-20T11:10:04;16.05;;;9.98;;
42092;SDS011;28974;50.316;18.960;2023-08-20T11:22:05;14.02;;;10.27;;
42092;SDS011;28974;50.316;18.960;2023-08-20T11:34:06;15.00;;;9.65;;
42092;SDS011;28974;50.316;18.960;2023-08-20T11:46:12;13.95;;;9.85;;
42092;SDS011;28974;50.316;18.960;2023-08-20T11:58:12;14.32;;;9.98;;
42092;SDS011;28974;50.316;18.960;2023-08-20T12:10:19;12.25;;;10.48;;
42092;SDS011;28974;50.316;18.960;2023-08-20T12:22:21;17.52;;;10.20;;
42092;SDS011;28974;50.316;18.960;2023-08-20T12:34:21;11.25;;;9.57;;
42092;SDS011;28974;50.316;18.960;2023-08-20T12:46:21;17.38;;;9.77;;
42092;SDS011;28974;50.316;18.960;2023-08-20T12:58:22;16.77;;;10.20;;
42092;SDS011;28974;50.316;18.960;2023-08-20T13:10:22;17.48;;;10.45;;
42092;SDS011;28974;50.316;18.960;2023-08-20T13:22:22;29.40;;;10.23;;
42092;SDS011;28974;50.316;18.960;2023-08-20T13:34:23;10.98;;;8.90;;
42092;SDS011;28974;50.316;18.960;2023-08-20T13:46:23;12.10;;;9.35;;
42092;SDS011;28974;50.316;18.960;2023-08-20T13:58:23;16.33;;;10.00;;
42092;SDS011;28974;50.316;18.960;2023-08-20T14:10:24;13.55;;;8.65;;
42092;SDS011;28974;50.316;18.960;2023-08-20T14:22:24;11.90;;;8.60;;
42092;SDS011;28974;50.316;18.960;2023-08-20T14:34:24;11.63;;;9.00;;
42092;SDS011;28974;50.316;18.960;2023-08-20T14:46:25;15.30;;;9.27;;
42092;SDS011;28974;50.316;18.960;2023-08-20T14:58:25;8.70;;;7.80;;
42092;SDS011;28974;50.316;18.960;2023-08-20T15:10:25;10.15;;;7.25;;
42092;SDS011;28974;50.316;18.960;2023-08-20T15:22:26;9.50;;;7.78;;
42092;SDS011;28974;50.316;18.960;2023-08-20T15:34:26;8.00;;;7.17;;
42092;SDS011;28974;50.316;18.960;2023-08-20T15:46:27;9.35;;;6.80;;
42092;SDS011;28974;50.316;18.960;2023-08-20T15:58:27;73.93;;;9.57;;
42092;SDS011;28974;50.316;18.960;2023-08-20T16:10:27;12.35;;;8.18;;
42092;SDS011;28974;50.316;18.960;2023-08-20T16:22:28;12.30;;;8.15;;
42092;SDS011;28974;50.316;18.960;2023-08-20T16:34:29;10.90;;;8.65;;
42092;SDS011;28974;50.316;18.960;2023-08-20T16:46:29;11.10;;;8.82;;
42092;SDS011;28974;50.316;18.960;2023-08-20T16:58:30;10.55;;;8.85;;
42092;SDS011;28974;50.316;18.960;2023-08-20T17:10:30;17.13;;;9.75;;
42092;SDS011;28974;50.316;18.960;2023-08-20T17:22:31;11.87;;;9.13;;
42092;SDS011;28974;50.316;18.960;2023-08-20T17:34:31;12.65;;;9.88;;
42092;SDS011;28974;50.316;18.960;2023-08-20T17:46:43;20.03;;;11.00;;
42092;SDS011;28974;50.316;18.960;2023-08-20T17:58:43;16.33;;;10.30;;
42092;SDS011;28974;50.316;18.960;2023-08-20T18:10:43;25.42;;;10.75;;
42092;SDS011;28974;50.316;18.960;2023-08-20T18:22:44;14.70;;;11.45;;
42092;SDS011;28974;50.316;18.960;2023-08-20T18:34:44;22.45;;;11.65;;
42092;SDS011;28974;50.316;18.960;2023-08-20T18:46:44;16.55;;;12.13;;
42092;SDS011;28974;50.316;18.960;2023-08-20T18:58:44;21.45;;;13.38;;
42092;SDS011;28974;50.316;18.960;2023-08-20T19:10:45;20.83;;;13.10;;
42092;SDS011;28974;50.316;18.960;2023-08-20T19:22:45;27.77;;;15.25;;
42092;SDS011;28974;50.316;18.960;2023-08-20T19:34:45;27.88;;;15.65;;
42092;SDS011;28974;50.316;18.960;2023-08-20T19:46:45;29.02;;;16.42;;
42092;SDS011;28974;50.316;18.960;2023-08-20T19:58:46;32.33;;;18.42;;
42092;SDS011;28974;50.316;18.960;2023-08-20T20:10:46;30.00;;;17.83;;
42092;SDS011;28974;50.316;18.960;2023-08-20T20:22:46;34.10;;;19.77;;
42092;SDS011;28974;50.316;18.960;2023-08-20T20:34:46;29.95;;;18.50;;
42092;SDS011;28974;50.316;18.960;2023-08-20T20:46:47;25.47;;;18.80;;
42092;SDS011;28974;50.316;18.960;2023-08-20T20:58:48;46.03;;;23.20;;
42092;SDS011;28974;50.316;18.960;2023-08-20T21:10:48;39.03;;;23.90;;
42092;SDS011;28974;50.316;18.960;2023-08-20T21:22:48;38.85;;;20.98;;
42092;SDS011;28974;50.316;18.960;2023-08-20T21:34:49;40.00;;;20.80;;
42092;SDS011;28974;50.316;18.960;2023-08-20T21:46:53;37.00;;;22.92;;
42092;SDS011;28974;50.316;18.960;2023-08-20T21:58:54;41.40;;;23.80;;
42092;SDS011;28974;50.316;18.960;2023-08-20T22:10:55;45.47;;;26.67;;
42092;SDS011;28974;50.316;18.960;2023-08-20T22:22:56;35.90;;;22.70;;
42092;SDS011;28974;50.316;18.960;2023-08-20T22:34:56;35.30;;;23.98;;
42092;SDS011;28974;50.316;18.960;2023-08-20T22:46:56;40.90;;;24.60;;
42092;SDS011;28974;50.316;18.960;2023-08-20T22:58:57;35.25;;;23.77;;
42092;SDS011;28974;50.316;18.960;2023-08-20T23:10:57;30.77;;;21.77;;
42092;SDS011;28974;50.316;18.960;2023-08-20T23:22:57;40.15;;;24.73;;
42092;SDS011;28974;50.316;18.960;2023-08-20T23:34:58;34.60;;;23.75;;
42092;SDS011;28974;50.316;18.960;2023-08-20T23:46:58;49.20;;;25.90;;
42092;SDS011;28974;50.316;18.960;2023-08-20T23:58:59;45.60;;;26.30;;
